Terminal Aerodrome Forecast
Issued by NWS Pueblo, CO

Home | Current Version | Previous Version | Text Only | Print | Product List | Glossary On
Versions: 1 2 3 4 5 6 7 8 9 10 11 12 13 14 15 16 17 18
000
FTUS45 KPUB 210810 AAA
TAFCOS
TAF AMD
KCOS 210810Z 2108/2206 36013KT P6SM SCT010 OVC025
     FM211100 01015KT 3SM -SN BR SCT008 OVC012
     FM211700 35020G30KT 3SM -SN BR SCT008 OVC012
     FM212100 35025G35KT 5SM BR VCSH OVC015
     FM220300 34020G30KT P6SM SCT015 OVC035=

USA.gov is the U.S. government's official web portal to all federal, state and local government web resources and services.